PWSweather.com
Personal Weather Stations
Station Observations
RIORANCHO
Corrales Heights, Rio Rancho, NM 87124

Corrales HeightsRio Rancho, NM 87124

Lat: 35.241928, Lon: -106.647095

Elevation: 5297

Station Type: Davis Vantage Pro 2 Plus

http://www.weatherriorancho.com

High Low Average
Temperature 42.1°F5.6°C 29.5°F-1.4°C 35.4°F1.9°C
Dew Point 27.9°F-2.3°C 11.9°F-11.2°C 16.3°F-8.7°C
Winds 15.0 mph 24.1 kmh Calm Calm 4.0 mph W6.4 kmh W
Wind Gusts 19.6 mph31.5 kmh -- 8.0 mph12.9 kmh
Humidity 71% 33% 46%
Pressure 30.09 in1019.0 mb 29.79 in1008.8 mb -
Precipitation 0.00 in0.0 mm - -
Hour Temp Dew Point Humidity Winds Wind Gusts Pressure Precip Precip Rate Daily Precip Total
12:00 AM 36.4°F2.4°C 27.9°F-2.3°C 71% 8.1 mph W13.0 kmh W 10.4 mph16.7 kmh 29.79 in1008.8 mb - 0.00 in0.0 mm 0.00 in0.0 mm
12:10 AM 35.5°F1.9°C 26.4°F-3.1°C 69% 12.7 mph WNW20.4 kmh WNW 19.6 mph31.5 kmh 29.80 in1009.1 mb - 0.00 in0.0 mm 0.00 in0.0 mm
12:20 AM 35.0°F1.7°C 25.5°F-3.6°C 68% 9.2 mph WNW14.8 kmh WNW 17.3 mph27.8 kmh 29.80 in1009.1 mb - 0.00 in0.0 mm 0.00 in0.0 mm
12:30 AM 34.5°F1.4°C 24.7°F-4.1°C 67% 11.5 mph WNW18.5 kmh WNW 19.6 mph31.5 kmh 29.80 in1009.1 mb - 0.00 in0.0 mm 0.00 in0.0 mm
12:40 AM 33.8°F1.0°C 24.4°F-4.2°C 68% 15.0 mph WNW24.1 kmh WNW 19.6 mph31.5 kmh 29.81 in1009.5 mb - 0.00 in0.0 mm 0.00 in0.0 mm
12:50 AM 33.5°F0.8°C 23.4°F-4.8°C 66% 8.1 mph NW13.0 kmh NW 15.0 mph24.1 kmh 29.83 in1010.2 mb - 0.00 in0.0 mm 0.00 in0.0 mm
01:00 AM 33.4°F0.8°C 22.5°F-5.3°C 64% 10.4 mph WNW16.7 kmh WNW 16.1 mph25.9 kmh 29.84 in1010.5 mb - 0.00 in0.0 mm 0.00 in0.0 mm
01:10 AM 33.0°F0.6°C 21.4°F-5.9°C 62% 13.8 mph WNW22.2 kmh WNW 19.6 mph31.5 kmh 29.84 in1010.5 mb - 0.00 in0.0 mm 0.00 in0.0 mm
01:20 AM 32.9°F0.5°C 20.5°F-6.4°C 60% 11.5 mph WNW18.5 kmh WNW 19.6 mph31.5 kmh 29.84 in1010.5 mb - 0.00 in0.0 mm 0.00 in0.0 mm
01:30 AM 32.7°F0.4°C 19.9°F-6.7°C 59% 12.7 mph WNW20.4 kmh WNW 17.3 mph27.8 kmh 29.84 in1010.5 mb - 0.00 in0.0 mm 0.00 in0.0 mm
01:40 AM 32.4°F0.2°C 19.7°F-6.8°C 59% 12.7 mph WNW20.4 kmh WNW 17.3 mph27.8 kmh 29.84 in1010.5 mb - 0.00 in0.0 mm 0.00 in0.0 mm
01:50 AM 32.2°F0.1°C 19.4°F-7.0°C 59% 15.0 mph WNW24.1 kmh WNW 19.6 mph31.5 kmh 29.84 in1010.5 mb - 0.00 in0.0 mm 0.00 in0.0 mm
02:00 AM 31.8°F-0.1°C 19.5°F-6.9°C 60% 12.7 mph WNW20.4 kmh WNW 19.6 mph31.5 kmh 29.85 in1010.8 mb - 0.00 in0.0 mm 0.00 in0.0 mm
02:10 AM 31.4°F-0.3°C 19.1°F-7.2°C 60% 9.2 mph NW14.8 kmh NW 11.5 mph18.5 kmh 29.86 in1011.2 mb - 0.00 in0.0 mm 0.00 in0.0 mm
02:20 AM 31.3°F-0.4°C 19.0°F-7.2°C 60% 11.5 mph W18.5 kmh W 19.6 mph31.5 kmh 29.87 in1011.5 mb - 0.00 in0.0 mm 0.00 in0.0 mm
02:30 AM 31.3°F-0.4°C 19.0°F-7.2°C 60% 9.2 mph W14.8 kmh W 17.3 mph27.8 kmh 29.87 in1011.5 mb - 0.00 in0.0 mm 0.00 in0.0 mm
02:40 AM 31.3°F-0.4°C 19.0°F-7.2°C 60% 10.4 mph W16.7 kmh W 19.6 mph31.5 kmh 29.88 in1011.9 mb - 0.00 in0.0 mm 0.00 in0.0 mm
02:50 AM 31.0°F-0.6°C 18.7°F-7.4°C 60% 10.4 mph W16.7 kmh W 17.3 mph27.8 kmh 29.88 in1011.9 mb - 0.00 in0.0 mm 0.00 in0.0 mm
03:00 AM 31.1°F-0.5°C 18.1°F-7.7°C 58% 9.2 mph WNW14.8 kmh WNW 18.4 mph29.6 kmh 29.89 in1012.2 mb - 0.00 in0.0 mm 0.00 in0.0 mm
03:10 AM 31.0°F-0.6°C 18.0°F-7.8°C 58% 8.1 mph W13.0 kmh W 12.7 mph20.4 kmh 29.88 in1011.9 mb - 0.00 in0.0 mm 0.00 in0.0 mm
03:20 AM 31.0°F-0.6°C 17.9°F-7.8°C 58% 11.5 mph W18.5 kmh W 18.4 mph29.6 kmh 29.89 in1012.2 mb - 0.00 in0.0 mm 0.00 in0.0 mm
03:30 AM 30.8°F-0.7°C 17.4°F-8.1°C 57% 8.1 mph WNW13.0 kmh WNW 13.8 mph22.2 kmh 29.89 in1012.2 mb - 0.00 in0.0 mm 0.00 in0.0 mm
03:40 AM 30.7°F-0.7°C 17.3°F-8.2°C 57% 10.4 mph W16.7 kmh W 15.0 mph24.1 kmh 29.89 in1012.2 mb - 0.00 in0.0 mm 0.00 in0.0 mm
03:50 AM 30.6°F-0.8°C 17.6°F-8.0°C 58% 9.2 mph W14.8 kmh W 18.4 mph29.6 kmh 29.90 in1012.5 mb - 0.00 in0.0 mm 0.00 in0.0 mm
04:00 AM 30.5°F-0.8°C 17.9°F-7.8°C 59% 5.8 mph WNW9.3 kmh WNW 11.5 mph18.5 kmh 29.90 in1012.5 mb - 0.00 in0.0 mm 0.00 in0.0 mm
04:10 AM 30.5°F-0.8°C 17.5°F-8.1°C 58% 9.2 mph WNW14.8 kmh WNW 16.1 mph25.9 kmh 29.90 in1012.5 mb - 0.00 in0.0 mm 0.00 in0.0 mm
04:20 AM 30.5°F-0.8°C 17.1°F-8.3°C 57% 5.8 mph W9.3 kmh W 12.7 mph20.4 kmh 29.91 in1012.9 mb - 0.00 in0.0 mm 0.00 in0.0 mm
04:30 AM 30.5°F-0.8°C 17.0°F-8.3°C 57% 8.1 mph W13.0 kmh W 13.8 mph22.2 kmh 29.91 in1012.9 mb - 0.00 in0.0 mm 0.00 in0.0 mm
04:40 AM 30.4°F-0.9°C 16.1°F-8.8°C 55% 6.9 mph WNW11.1 kmh WNW 9.2 mph14.8 kmh 29.91 in1012.9 mb - 0.00 in0.0 mm 0.00 in0.0 mm
04:50 AM 30.4°F-0.9°C 16.6°F-8.6°C 56% 5.8 mph NW9.3 kmh NW 16.1 mph25.9 kmh 29.92 in1013.2 mb - 0.00 in0.0 mm 0.00 in0.0 mm
05:00 AM 30.2°F-1.0°C 16.0°F-8.9°C 55% 8.1 mph WNW13.0 kmh WNW 16.1 mph25.9 kmh 29.92 in1013.2 mb - 0.00 in0.0 mm 0.00 in0.0 mm
05:10 AM 30.2°F-1.0°C 15.5°F-9.2°C 54% 5.8 mph WNW9.3 kmh WNW 9.2 mph14.8 kmh 29.92 in1013.2 mb - 0.00 in0.0 mm 0.00 in0.0 mm
05:20 AM 30.1°F-1.1°C 16.3°F-8.7°C 56% 11.5 mph WNW18.5 kmh WNW 18.4 mph29.6 kmh 29.92 in1013.2 mb - 0.00 in0.0 mm 0.00 in0.0 mm
05:30 AM 30.1°F-1.1°C 16.3°F-8.7°C 56% 3.5 mph WNW5.6 kmh WNW 5.8 mph9.3 kmh 29.93 in1013.5 mb - 0.00 in0.0 mm 0.00 in0.0 mm
05:40 AM 30.2°F-1.0°C 15.9°F-8.9°C 55% 4.6 mph WNW7.4 kmh WNW 8.1 mph13.0 kmh 29.93 in1013.5 mb - 0.00 in0.0 mm 0.00 in0.0 mm
05:50 AM 30.2°F-1.0°C 15.5°F-9.2°C 54% 4.6 mph WNW7.4 kmh WNW 10.4 mph16.7 kmh 29.94 in1013.9 mb - 0.00 in0.0 mm 0.00 in0.0 mm
06:00 AM 30.2°F-1.0°C 15.1°F-9.4°C 53% 5.8 mph WNW9.3 kmh WNW 6.9 mph11.1 kmh 29.94 in1013.9 mb - 0.00 in0.0 mm 0.00 in0.0 mm
06:10 AM 30.3°F-0.9°C 15.2°F-9.3°C 53% 3.5 mph WNW5.6 kmh WNW 8.1 mph13.0 kmh 29.95 in1014.2 mb - 0.00 in0.0 mm 0.00 in0.0 mm
06:20 AM 30.3°F-0.9°C 15.2°F-9.3°C 53% 2.3 mph WNW3.7 kmh WNW 5.8 mph9.3 kmh 29.94 in1013.9 mb - 0.00 in0.0 mm 0.00 in0.0 mm
06:30 AM 30.3°F-0.9°C 14.8°F-9.6°C 52% 4.6 mph WNW7.4 kmh WNW 8.1 mph13.0 kmh 29.94 in1013.9 mb - 0.00 in0.0 mm 0.00 in0.0 mm
06:40 AM 30.3°F-0.9°C 14.8°F-9.6°C 52% 3.5 mph WNW5.6 kmh WNW 9.2 mph14.8 kmh 29.95 in1014.2 mb - 0.00 in0.0 mm 0.00 in0.0 mm
06:50 AM 30.3°F-0.9°C 14.8°F-9.6°C 52% Calm Calm 1.2 mph1.9 kmh 29.95 in1014.2 mb - 0.00 in0.0 mm 0.00 in0.0 mm
07:00 AM 30.3°F-0.9°C 14.8°F-9.6°C 52% Calm Calm 2.3 mph3.7 kmh 29.95 in1014.2 mb - 0.00 in0.0 mm 0.00 in0.0 mm
07:10 AM 30.5°F-0.8°C 14.5°F-9.7°C 51% 4.6 mph WNW7.4 kmh WNW 9.2 mph14.8 kmh 29.96 in1014.6 mb - 0.00 in0.0 mm 0.00 in0.0 mm
07:20 AM 30.6°F-0.8°C 14.6°F-9.7°C 51% 4.6 mph W7.4 kmh W 9.2 mph14.8 kmh 29.96 in1014.6 mb - 0.00 in0.0 mm 0.00 in0.0 mm
07:30 AM 30.7°F-0.7°C 14.2°F-9.9°C 50% 3.5 mph W5.6 kmh W 8.1 mph13.0 kmh 29.96 in1014.6 mb - 0.00 in0.0 mm 0.00 in0.0 mm
07:40 AM 30.8°F-0.7°C 13.9°F-10.1°C 49% 3.5 mph W5.6 kmh W 5.8 mph9.3 kmh 29.97 in1014.9 mb - 0.00 in0.0 mm 0.00 in0.0 mm
07:50 AM 31.0°F-0.6°C 13.6°F-10.2°C 48% 2.3 mph W3.7 kmh W 9.2 mph14.8 kmh 29.97 in1014.9 mb - 0.00 in0.0 mm 0.00 in0.0 mm
08:00 AM 31.2°F-0.4°C 13.3°F-10.4°C 47% 2.3 mph W3.7 kmh W 4.6 mph7.4 kmh 29.97 in1014.9 mb - 0.00 in0.0 mm 0.00 in0.0 mm
08:10 AM 31.5°F-0.3°C 12.1°F-11.1°C 44% 3.5 mph WSW5.6 kmh WSW 9.2 mph14.8 kmh 29.97 in1014.9 mb - 0.00 in0.0 mm 0.00 in0.0 mm
08:20 AM 32.1°F0.1°C 12.1°F-11.1°C 43% 4.6 mph W7.4 kmh W 9.2 mph14.8 kmh 29.98 in1015.2 mb - 0.00 in0.0 mm 0.00 in0.0 mm
08:30 AM 32.5°F0.3°C 11.9°F-11.2°C 42% 4.6 mph WSW7.4 kmh WSW 11.5 mph18.5 kmh 29.97 in1014.9 mb - 0.00 in0.0 mm 0.00 in0.0 mm
08:40 AM 32.8°F0.4°C 12.2°F-11.0°C 42% 9.2 mph WSW14.8 kmh WSW 15.0 mph24.1 kmh 29.97 in1014.9 mb - 0.00 in0.0 mm 0.00 in0.0 mm
08:50 AM 33.5°F0.8°C 12.9°F-10.6°C 42% 4.6 mph W7.4 kmh W 6.9 mph11.1 kmh 29.98 in1015.2 mb - 0.00 in0.0 mm 0.00 in0.0 mm
09:00 AM 34.0°F1.1°C 12.7°F-10.7°C 41% 6.9 mph WSW11.1 kmh WSW 13.8 mph22.2 kmh 29.98 in1015.2 mb - 0.00 in0.0 mm 0.00 in0.0 mm
09:10 AM 34.3°F1.3°C 13.0°F-10.6°C 41% 8.1 mph WSW13.0 kmh WSW 11.5 mph18.5 kmh 29.98 in1015.2 mb - 0.00 in0.0 mm 0.00 in0.0 mm
09:20 AM 34.5°F1.4°C 12.7°F-10.7°C 40% 5.8 mph SW9.3 kmh SW 10.4 mph16.7 kmh 29.98 in1015.2 mb - 0.00 in0.0 mm 0.00 in0.0 mm
09:30 AM 34.5°F1.4°C 12.7°F-10.7°C 40% 8.1 mph SW13.0 kmh SW 15.0 mph24.1 kmh 29.98 in1015.2 mb - 0.00 in0.0 mm 0.00 in0.0 mm
09:40 AM 34.7°F1.5°C 12.8°F-10.7°C 40% 6.9 mph WSW11.1 kmh WSW 11.5 mph18.5 kmh 29.99 in1015.6 mb - 0.00 in0.0 mm 0.00 in0.0 mm
09:50 AM 35.5°F1.9°C 13.0°F-10.6°C 39% 5.8 mph W9.3 kmh W 11.5 mph18.5 kmh 29.99 in1015.6 mb - 0.00 in0.0 mm 0.00 in0.0 mm
10:00 AM 36.4°F2.4°C 12.6°F-10.8°C 37% 5.8 mph W9.3 kmh W 11.5 mph18.5 kmh 29.98 in1015.2 mb - 0.00 in0.0 mm 0.00 in0.0 mm
10:10 AM 37.5°F3.1°C 13.0°F-10.6°C 36% 6.9 mph WSW11.1 kmh WSW 12.7 mph20.4 kmh 29.98 in1015.2 mb - 0.00 in0.0 mm 0.00 in0.0 mm
10:20 AM 38.3°F3.5°C 13.0°F-10.6°C 35% 6.9 mph WNW11.1 kmh WNW 10.4 mph16.7 kmh 29.99 in1015.6 mb - 0.00 in0.0 mm 0.00 in0.0 mm
10:30 AM 38.3°F3.5°C 13.0°F-10.6°C 35% 2.3 mph W3.7 kmh W 9.2 mph14.8 kmh 29.99 in1015.6 mb - 0.00 in0.0 mm 0.00 in0.0 mm
10:40 AM 39.0°F3.9°C 12.9°F-10.6°C 34% 9.2 mph WSW14.8 kmh WSW 11.5 mph18.5 kmh 29.99 in1015.6 mb - 0.00 in0.0 mm 0.00 in0.0 mm
10:50 AM 38.8°F3.8°C 12.8°F-10.7°C 34% 8.1 mph WNW13.0 kmh WNW 13.8 mph22.2 kmh 29.99 in1015.6 mb - 0.00 in0.0 mm 0.00 in0.0 mm
11:00 AM 38.2°F3.4°C 14.2°F-9.9°C 37% 1.2 mph SW1.9 kmh SW 9.2 mph14.8 kmh 29.98 in1015.2 mb - 0.00 in0.0 mm 0.00 in0.0 mm
11:10 AM 38.6°F3.7°C 13.9°F-10.1°C 36% 2.3 mph SW3.7 kmh SW 6.9 mph11.1 kmh 29.98 in1015.2 mb - 0.00 in0.0 mm 0.00 in0.0 mm
11:20 AM 39.9°F4.4°C 14.4°F-9.8°C 35% 4.6 mph WSW7.4 kmh WSW 10.4 mph16.7 kmh 29.98 in1015.2 mb - 0.00 in0.0 mm 0.00 in0.0 mm
11:30 AM 41.7°F5.4°C 14.6°F-9.7°C 33% 9.2 mph SW14.8 kmh SW 13.8 mph22.2 kmh 29.98 in1015.2 mb - 0.00 in0.0 mm 0.00 in0.0 mm
11:40 AM 41.3°F5.2°C 14.3°F-9.8°C 33% 3.5 mph WSW5.6 kmh WSW 12.7 mph20.4 kmh 29.98 in1015.2 mb - 0.00 in0.0 mm 0.00 in0.0 mm
11:50 AM 41.7°F5.4°C 14.7°F-9.6°C 33% 1.2 mph W1.9 kmh W 8.1 mph13.0 kmh 29.98 in1015.2 mb - 0.00 in0.0 mm 0.00 in0.0 mm
12:00 PM 40.1°F4.5°C 13.9°F-10.1°C 34% 3.5 mph SW5.6 kmh SW 9.2 mph14.8 kmh 29.98 in1015.2 mb - 0.00 in0.0 mm 0.00 in0.0 mm
12:10 PM 39.8°F4.3°C 13.6°F-10.2°C 34% 3.5 mph W5.6 kmh W 9.2 mph14.8 kmh 29.97 in1014.9 mb - 0.00 in0.0 mm 0.00 in0.0 mm
12:20 PM 41.0°F5.0°C 15.4°F-9.2°C 35% 2.3 mph W3.7 kmh W 5.8 mph9.3 kmh 29.97 in1014.9 mb - 0.00 in0.0 mm 0.00 in0.0 mm
12:30 PM 41.8°F5.4°C 15.4°F-9.2°C 34% Calm Calm 3.5 mph5.6 kmh 29.97 in1014.9 mb - 0.00 in0.0 mm 0.00 in0.0 mm
12:40 PM 41.5°F5.3°C 14.5°F-9.7°C 33% Calm Calm -- 29.96 in1014.6 mb - 0.00 in0.0 mm 0.00 in0.0 mm
12:50 PM 41.3°F5.2°C 15.0°F-9.4°C 34% Calm Calm 1.2 mph1.9 kmh 29.96 in1014.6 mb - 0.00 in0.0 mm 0.00 in0.0 mm
01:00 PM 41.0°F5.0°C 14.7°F-9.6°C 34% 3.5 mph NW5.6 kmh NW 4.6 mph7.4 kmh 29.95 in1014.2 mb - 0.00 in0.0 mm 0.00 in0.0 mm
01:10 PM 41.4°F5.2°C 15.1°F-9.4°C 34% Calm Calm -- 29.95 in1014.2 mb - 0.00 in0.0 mm 0.00 in0.0 mm
01:20 PM 42.1°F5.6°C 15.7°F-9.1°C 34% 1.2 mph WSW1.9 kmh WSW 4.6 mph7.4 kmh 29.95 in1014.2 mb - 0.00 in0.0 mm 0.00 in0.0 mm
01:30 PM 40.4°F4.7°C 14.8°F-9.6°C 35% 4.6 mph S7.4 kmh S 9.2 mph14.8 kmh 29.95 in1014.2 mb - 0.00 in0.0 mm 0.00 in0.0 mm
01:40 PM 40.6°F4.8°C 15.7°F-9.1°C 36% 1.2 mph S1.9 kmh S 3.5 mph5.6 kmh 29.95 in1014.2 mb - 0.00 in0.0 mm 0.00 in0.0 mm
01:50 PM 40.9°F4.9°C 16.0°F-8.9°C 36% Calm Calm 1.2 mph1.9 kmh 29.95 in1014.2 mb - 0.00 in0.0 mm 0.00 in0.0 mm
02:00 PM 41.5°F5.3°C 15.8°F-9.0°C 35% Calm Calm 2.3 mph3.7 kmh 29.95 in1014.2 mb - 0.00 in0.0 mm 0.00 in0.0 mm
02:10 PM 41.6°F5.3°C 15.9°F-8.9°C 35% Calm Calm -- 29.95 in1014.2 mb - 0.00 in0.0 mm 0.00 in0.0 mm
02:20 PM 41.1°F5.1°C 14.8°F-9.6°C 34% Calm Calm 1.2 mph1.9 kmh 29.95 in1014.2 mb - 0.00 in0.0 mm 0.00 in0.0 mm
02:30 PM 40.7°F4.8°C 14.5°F-9.7°C 34% 1.2 mph S1.9 kmh S 3.5 mph5.6 kmh 29.95 in1014.2 mb - 0.00 in0.0 mm 0.00 in0.0 mm
02:40 PM 40.7°F4.8°C 15.1°F-9.4°C 35% Calm Calm 2.3 mph3.7 kmh 29.95 in1014.2 mb - 0.00 in0.0 mm 0.00 in0.0 mm
02:50 PM 41.0°F5.0°C 14.8°F-9.6°C 34% Calm Calm -- 29.95 in1014.2 mb - 0.00 in0.0 mm 0.00 in0.0 mm
03:00 PM 41.3°F5.2°C 15.0°F-9.4°C 34% Calm Calm -- 29.95 in1014.2 mb - 0.00 in0.0 mm 0.00 in0.0 mm
03:10 PM 41.0°F5.0°C 15.4°F-9.2°C 35% 2.3 mph NE3.7 kmh NE 2.3 mph3.7 kmh 29.96 in1014.6 mb - 0.00 in0.0 mm 0.00 in0.0 mm
03:20 PM 40.7°F4.8°C 15.1°F-9.4°C 35% Calm Calm -- 29.96 in1014.6 mb - 0.00 in0.0 mm 0.00 in0.0 mm
03:30 PM 40.4°F4.7°C 14.9°F-9.5°C 35% 1.2 mph NE1.9 kmh NE 4.6 mph7.4 kmh 29.96 in1014.6 mb - 0.00 in0.0 mm 0.00 in0.0 mm
03:40 PM 40.3°F4.6°C 15.4°F-9.2°C 36% Calm Calm 2.3 mph3.7 kmh 29.97 in1014.9 mb - 0.00 in0.0 mm 0.00 in0.0 mm
03:50 PM 40.5°F4.7°C 16.2°F-8.8°C 37% 4.6 mph 7.4 kmh 8.1 mph13.0 kmh 29.97 in1014.9 mb - 0.00 in0.0 mm 0.00 in0.0 mm
04:00 PM 40.3°F4.6°C 16.1°F-8.8°C 37% 1.2 mph NW1.9 kmh NW 3.5 mph5.6 kmh 29.97 in1014.9 mb - 0.00 in0.0 mm 0.00 in0.0 mm
04:10 PM 40.2°F4.6°C 16.0°F-8.9°C 37% 3.5 mph NNW5.6 kmh NNW 5.8 mph9.3 kmh 29.98 in1015.2 mb - 0.00 in0.0 mm 0.00 in0.0 mm
04:20 PM 40.2°F4.6°C 16.0°F-8.9°C 37% 2.3 mph NNW3.7 kmh NNW 3.5 mph5.6 kmh 29.98 in1015.2 mb - 0.00 in0.0 mm 0.00 in0.0 mm
04:30 PM 40.0°F4.4°C 16.4°F-8.7°C 38% 3.5 mph NW5.6 kmh NW 3.5 mph5.6 kmh 29.98 in1015.2 mb - 0.00 in0.0 mm 0.00 in0.0 mm
04:40 PM 40.1°F4.5°C 17.1°F-8.3°C 39% 5.8 mph NW9.3 kmh NW 8.1 mph13.0 kmh 29.98 in1015.2 mb - 0.00 in0.0 mm 0.00 in0.0 mm
04:50 PM 39.7°F4.3°C 17.3°F-8.2°C 40% 6.9 mph NW11.1 kmh NW 8.1 mph13.0 kmh 29.99 in1015.6 mb - 0.00 in0.0 mm 0.00 in0.0 mm
05:00 PM 39.4°F4.1°C 18.2°F-7.7°C 42% 4.6 mph NW7.4 kmh NW 6.9 mph11.1 kmh 29.99 in1015.6 mb - 0.00 in0.0 mm 0.00 in0.0 mm
05:10 PM 39.3°F4.1°C 18.1°F-7.7°C 42% 5.8 mph NW9.3 kmh NW 10.4 mph16.7 kmh 30.00 in1015.9 mb - 0.00 in0.0 mm 0.00 in0.0 mm
05:20 PM 38.9°F3.8°C 18.3°F-7.6°C 43% 8.1 mph NW13.0 kmh NW 11.5 mph18.5 kmh 30.00 in1015.9 mb - 0.00 in0.0 mm 0.00 in0.0 mm
05:30 PM 38.7°F3.7°C 18.6°F-7.4°C 44% 5.8 mph NW9.3 kmh NW 8.1 mph13.0 kmh 30.00 in1015.9 mb - 0.00 in0.0 mm 0.00 in0.0 mm
05:40 PM 38.6°F3.7°C 18.5°F-7.5°C 44% 1.2 mph NW1.9 kmh NW 3.5 mph5.6 kmh 30.01 in1016.3 mb - 0.00 in0.0 mm 0.00 in0.0 mm
05:50 PM 38.6°F3.7°C 18.0°F-7.8°C 43% 1.2 mph NW1.9 kmh NW 5.8 mph9.3 kmh 30.01 in1016.3 mb - 0.00 in0.0 mm 0.00 in0.0 mm
06:00 PM 38.5°F3.6°C 17.9°F-7.8°C 43% 3.5 mph NNW5.6 kmh NNW 6.9 mph11.1 kmh 30.02 in1016.6 mb - 0.00 in0.0 mm 0.00 in0.0 mm
06:10 PM 38.4°F3.6°C 18.4°F-7.6°C 44% 1.2 mph NNW1.9 kmh NNW 3.5 mph5.6 kmh 30.02 in1016.6 mb - 0.00 in0.0 mm 0.00 in0.0 mm
06:20 PM 38.4°F3.6°C 18.4°F-7.6°C 44% 1.2 mph NNW1.9 kmh NNW 3.5 mph5.6 kmh 30.03 in1016.9 mb - 0.00 in0.0 mm 0.00 in0.0 mm
06:30 PM 38.2°F3.4°C 18.2°F-7.7°C 44% 2.3 mph NNW3.7 kmh NNW 3.5 mph5.6 kmh 30.03 in1016.9 mb - 0.00 in0.0 mm 0.00 in0.0 mm
06:40 PM 38.0°F3.3°C 18.0°F-7.8°C 44% 2.3 mph NNW3.7 kmh NNW 4.6 mph7.4 kmh 30.04 in1017.3 mb - 0.00 in0.0 mm 0.00 in0.0 mm
06:50 PM 37.8°F3.2°C 18.8°F-7.3°C 46% 3.5 mph NNW5.6 kmh NNW 5.8 mph9.3 kmh 30.04 in1017.3 mb - 0.00 in0.0 mm 0.00 in0.0 mm
07:00 PM 37.6°F3.1°C 18.7°F-7.4°C 46% 3.5 mph NNW5.6 kmh NNW 5.8 mph9.3 kmh 30.04 in1017.3 mb - 0.00 in0.0 mm 0.00 in0.0 mm
07:10 PM 37.4°F3.0°C 18.5°F-7.5°C 46% 1.2 mph NNW1.9 kmh NNW 4.6 mph7.4 kmh 30.04 in1017.3 mb - 0.00 in0.0 mm 0.00 in0.0 mm
07:20 PM 37.3°F2.9°C 18.4°F-7.6°C 46% 2.3 mph NNW3.7 kmh NNW 3.5 mph5.6 kmh 30.05 in1017.6 mb - 0.00 in0.0 mm 0.00 in0.0 mm
07:30 PM 37.4°F3.0°C 17.9°F-7.8°C 45% 5.8 mph NW9.3 kmh NW 8.1 mph13.0 kmh 30.05 in1017.6 mb - 0.00 in0.0 mm 0.00 in0.0 mm
07:40 PM 37.2°F2.9°C 17.8°F-7.9°C 45% 1.2 mph NW1.9 kmh NW 3.5 mph5.6 kmh 30.05 in1017.6 mb - 0.00 in0.0 mm 0.00 in0.0 mm
07:50 PM 36.9°F2.7°C 17.5°F-8.1°C 45% Calm Calm 4.6 mph7.4 kmh 30.05 in1017.6 mb - 0.00 in0.0 mm 0.00 in0.0 mm
08:00 PM 36.6°F2.6°C 17.2°F-8.2°C 45% 1.2 mph NNW1.9 kmh NNW 3.5 mph5.6 kmh 30.06 in1017.9 mb - 0.00 in0.0 mm 0.00 in0.0 mm
08:10 PM 36.6°F2.6°C 16.7°F-8.5°C 44% 1.2 mph NNW1.9 kmh NNW 3.5 mph5.6 kmh 30.06 in1017.9 mb - 0.00 in0.0 mm 0.00 in0.0 mm
08:20 PM 36.4°F2.4°C 16.5°F-8.6°C 44% 1.2 mph N1.9 kmh N 6.9 mph11.1 kmh 30.06 in1017.9 mb - 0.00 in0.0 mm 0.00 in0.0 mm
08:30 PM 36.2°F2.3°C 16.4°F-8.7°C 44% 2.3 mph NNW3.7 kmh NNW 4.6 mph7.4 kmh 30.07 in1018.3 mb - 0.00 in0.0 mm 0.00 in0.0 mm
08:40 PM 35.9°F2.2°C 16.1°F-8.8°C 44% 1.2 mph NNW1.9 kmh NNW 3.5 mph5.6 kmh 30.07 in1018.3 mb - 0.00 in0.0 mm 0.00 in0.0 mm
08:50 PM 35.7°F2.1°C 15.9°F-8.9°C 44% Calm Calm 1.2 mph1.9 kmh 30.07 in1018.3 mb - 0.00 in0.0 mm 0.00 in0.0 mm
09:00 PM 35.5°F1.9°C 15.7°F-9.1°C 44% Calm Calm -- 30.08 in1018.6 mb - 0.00 in0.0 mm 0.00 in0.0 mm
09:10 PM 35.3°F1.8°C 16.0°F-8.9°C 45% Calm Calm -- 30.08 in1018.6 mb - 0.00 in0.0 mm 0.00 in0.0 mm
09:20 PM 34.8°F1.6°C 15.6°F-9.1°C 45% Calm Calm -- 30.08 in1018.6 mb - 0.00 in0.0 mm 0.00 in0.0 mm
09:30 PM 34.5°F1.4°C 15.8°F-9.0°C 46% Calm Calm -- 30.08 in1018.6 mb - 0.00 in0.0 mm 0.00 in0.0 mm
09:40 PM 34.4°F1.3°C 15.2°F-9.3°C 45% Calm Calm 1.2 mph1.9 kmh 30.08 in1018.6 mb - 0.00 in0.0 mm 0.00 in0.0 mm
09:50 PM 34.3°F1.3°C 15.6°F-9.1°C 46% Calm Calm -- 30.09 in1019.0 mb - 0.00 in0.0 mm 0.00 in0.0 mm
10:00 PM 34.1°F1.2°C 14.9°F-9.5°C 45% Calm Calm -- 30.09 in1019.0 mb - 0.00 in0.0 mm 0.00 in0.0 mm
10:10 PM 33.6°F0.9°C 15.5°F-9.2°C 47% Calm Calm -- 30.09 in1019.0 mb - 0.00 in0.0 mm 0.00 in0.0 mm
10:20 PM 33.2°F0.7°C 15.1°F-9.4°C 47% Calm Calm -- 30.09 in1019.0 mb - 0.00 in0.0 mm 0.00 in0.0 mm
10:30 PM 32.8°F0.4°C 15.2°F-9.3°C 48% Calm Calm -- 30.09 in1019.0 mb - 0.00 in0.0 mm 0.00 in0.0 mm
10:40 PM 32.3°F0.2°C 15.3°F-9.3°C 49% Calm Calm -- 30.09 in1019.0 mb - 0.00 in0.0 mm 0.00 in0.0 mm
10:50 PM 31.9°F-0.1°C 14.9°F-9.5°C 49% Calm Calm -- 30.09 in1019.0 mb - 0.00 in0.0 mm 0.00 in0.0 mm
11:00 PM 31.7°F-0.2°C 14.7°F-9.6°C 49% Calm Calm -- 30.09 in1019.0 mb - 0.00 in0.0 mm 0.00 in0.0 mm
11:10 PM 31.3°F-0.4°C 14.8°F-9.6°C 50% Calm Calm -- 30.08 in1018.6 mb - 0.00 in0.0 mm 0.00 in0.0 mm
11:20 PM 30.8°F-0.7°C 14.3°F-9.8°C 50% 1.2 mph NNW1.9 kmh NNW 2.3 mph3.7 kmh 30.08 in1018.6 mb - 0.00 in0.0 mm 0.00 in0.0 mm
11:30 PM 30.3°F-0.9°C 14.4°F-9.8°C 51% Calm Calm 1.2 mph1.9 kmh 30.08 in1018.6 mb - 0.00 in0.0 mm 0.00 in0.0 mm
11:40 PM 30.1°F-1.1°C 14.1°F-9.9°C 51% Calm Calm -- 30.09 in1019.0 mb - 0.00 in0.0 mm 0.00 in0.0 mm
11:50 PM 29.5°F-1.4°C 14.0°F-10.0°C 52% 1.2 mph NNW1.9 kmh NNW 3.5 mph5.6 kmh 30.09 in1019.0 mb - 0.00 in0.0 mm 0.00 in0.0 mm